Time;durP1;ratioP1;P1;durP2;ratioP2;P2;SDS_P1;SDS_P2;PMS_P1;PMS_P2;Temp;Humidity;BMP_temperature;BMP_pressure;BME280_temperature;BME280_humidity;BME280_pressure;Samples;Min_cycle;Max_cycle;Signal;HPM_P1;HPM_P2
2023/10/20 00:02:08;;;;;;;24.10;9.98;;;14.90;99.90;;;;;;5017318;28;20437;-74
2023/10/20 00:04:33;;;;;;;17.92;8.93;;;14.90;99.90;;;;;;5012564;28;20029;-74
2023/10/20 00:06:59;;;;;;;17.52;8.90;;;14.90;99.90;;;;;;4992084;28;20399;-75
2023/10/20 00:09:25;;;;;;;20.75;8.98;;;14.90;99.90;;;;;;4992219;28;20037;-74
2023/10/20 00:11:51;;;;;;;27.02;10.02;;;14.90;99.90;;;;;;4997993;28;20097;-75
2023/10/20 00:14:17;;;;;;;14.23;9.10;;;14.90;99.90;;;;;;4996919;28;20030;-76
2023/10/20 00:16:43;;;;;;;16.45;9.50;;;14.90;99.90;;;;;;5010273;28;20052;-74
2023/10/20 00:19:08;;;;;;;17.42;8.98;;;14.90;99.90;;;;;;5013817;28;20037;-74
2023/10/20 00:21:35;;;;;;;19.05;9.77;;;14.90;99.90;;;;;;5003245;28;20069;-74
2023/10/20 00:24:01;;;;;;;19.52;9.95;;;14.90;99.90;;;;;;4991501;28;20042;-75
2023/10/20 00:26:26;;;;;;;19.52;10.35;;;14.90;99.90;;;;;;5009369;28;20053;-74
2023/10/20 00:28:52;;;;;;;18.10;9.57;;;14.90;99.90;;;;;;4993424;28;20041;-76
2023/10/20 00:31:18;;;;;;;18.63;10.20;;;14.90;99.90;;;;;;5015345;28;20033;-72
2023/10/20 00:33:45;;;;;;;18.10;10.38;;;14.90;99.90;;;;;;5028092;28;20025;-74
2023/10/20 00:36:11;;;;;;;20.92;10.32;;;14.90;99.90;;;;;;5011396;28;20040;-74
2023/10/20 00:38:37;;;;;;;19.88;9.90;;;14.90;99.90;;;;;;5011697;28;20116;-76
2023/10/20 00:41:03;;;;;;;17.13;9.43;;;14.90;99.90;;;;;;5016529;28;20051;-73
2023/10/20 00:43:35;;;;;;;23.67;10.23;;;14.90;99.90;;;;;;5029875;28;20037;-73
2023/10/20 00:46:04;;;;;;;18.80;10.00;;;14.90;99.90;;;;;;5011087;28;20029;-74
2023/10/20 00:48:30;;;;;;;19.05;10.02;;;14.90;99.90;;;;;;5028680;28;20028;-72
2023/10/20 00:50:57;;;;;;;20.77;10.40;;;14.80;99.90;;;;;;5010885;28;20029;-73
2023/10/20 00:53:23;;;;;;;21.98;10.27;;;14.80;99.90;;;;;;5010512;28;20026;-73
2023/10/20 00:55:50;;;;;;;18.77;10.57;;;14.80;99.90;;;;;;5028180;28;20096;-74
2023/10/20 00:58:16;;;;;;;19.67;10.55;;;14.80;99.90;;;;;;5028201;28;20083;-74
2023/10/20 01:00:42;;;;;;;21.15;11.27;;;14.70;99.90;;;;;;5029523;28;20029;-74
2023/10/20 01:03:08;;;;;;;24.17;10.65;;;14.70;99.90;;;;;;5010434;28;20503;-74
2023/10/20 01:05:35;;;;;;;22.98;10.90;;;14.70;99.90;;;;;;5017251;28;20059;-75
2023/10/20 01:08:01;;;;;;;19.50;10.20;;;14.70;99.90;;;;;;4995717;28;20095;-76
2023/10/20 01:10:27;;;;;;;19.15;10.10;;;14.70;99.90;;;;;;4991332;28;20037;-74
2023/10/20 01:12:52;;;;;;;21.75;12.00;;;14.70;99.90;;;;;;5008171;28;20036;-74
2023/10/20 01:15:18;;;;;;;19.30;10.27;;;14.60;99.90;;;;;;5017442;28;20026;-72
2023/10/20 01:17:43;;;;;;;21.55;10.40;;;14.60;99.90;;;;;;4998910;28;20120;-74
2023/10/20 01:20:10;;;;;;;19.30;10.82;;;14.60;99.90;;;;;;4990689;28;20062;-73
2023/10/20 01:22:35;;;;;;;26.55;11.25;;;14.60;99.90;;;;;;4990509;28;20092;-74
2023/10/20 01:27:37;;;;;;;17.85;9.73;;;14.60;99.90;;;;;;5317407;22;20049;-75
2023/10/20 01:30:03;;;;;;;22.45;11.45;;;14.60;99.90;;;;;;5051179;28;20112;-76
2023/10/20 01:32:29;;;;;;;20.65;10.80;;;14.60;99.90;;;;;;5054498;28;20053;-76
2023/10/20 01:34:54;;;;;;;19.30;11.02;;;14.60;99.90;;;;;;5047453;28;20096;-76
2023/10/20 01:37:20;;;;;;;19.55;10.45;;;14.60;99.90;;;;;;5019256;28;20061;-75
2023/10/20 01:39:47;;;;;;;20.17;10.50;;;14.60;99.90;;;;;;5035525;28;20037;-76
2023/10/20 01:42:12;;;;;;;24.30;11.93;;;14.60;99.90;;;;;;5032290;28;20037;-77
2023/10/20 01:44:38;;;;;;;22.75;11.50;;;14.60;99.90;;;;;;5016552;28;20444;-75
2023/10/20 01:47:04;;;;;;;19.33;11.35;;;14.70;99.90;;;;;;5033875;28;20042;-75
2023/10/20 01:49:30;;;;;;;19.73;10.98;;;14.60;99.90;;;;;;5015559;28;20025;-75
2023/10/20 01:51:56;;;;;;;23.13;12.35;;;14.60;99.90;;;;;;5038846;28;20040;-74
2023/10/20 01:54:22;;;;;;;25.80;12.40;;;14.60;99.90;;;;;;5019700;28;20049;-75
2023/10/20 01:56:48;;;;;;;21.40;11.20;;;14.60;99.90;;;;;;5036133;28;20402;-75
2023/10/20 01:59:15;;;;;;;26.90;12.30;;;14.60;99.90;;;;;;5018260;28;20052;-75
2023/10/20 02:01:41;;;;;;;19.75;10.70;;;14.60;99.90;;;;;;5034432;28;20546;-75
2023/10/20 02:04:07;;;;;;;23.00;11.82;;;14.50;99.90;;;;;;5015463;28;20136;-75
2023/10/20 02:06:34;;;;;;;22.88;11.65;;;14.50;99.90;;;;;;5035656;28;20037;-75
2023/10/20 02:09:00;;;;;;;24.38;12.52;;;14.50;99.90;;;;;;5037562;28;20029;-75
2023/10/20 02:11:25;;;;;;;24.00;13.23;;;14.50;99.90;;;;;;5035036;28;20095;-77
2023/10/20 02:13:51;;;;;;;26.33;12.63;;;14.50;99.90;;;;;;5016883;28;20017;-75
2023/10/20 02:16:17;;;;;;;23.95;11.85;;;14.40;99.90;;;;;;5015995;28;20044;-75
2023/10/20 02:18:42;;;;;;;24.00;12.50;;;14.40;99.90;;;;;;5016454;28;20401;-74
2023/10/20 02:21:09;;;;;;;24.08;11.80;;;14.30;99.90;;;;;;5034055;28;20040;-75
2023/10/20 02:23:36;;;;;;;23.52;11.05;;;14.30;99.90;;;;;;5033391;28;20026;-75
2023/10/20 02:26:06;;;;;;;25.60;12.18;;;14.30;99.90;;;;;;5015218;28;20036;-76
2023/10/20 02:28:40;;;;;;;29.13;12.48;;;14.20;99.90;;;;;;5032277;28;20667;-75
2023/10/20 02:31:14;;;;;;;22.92;10.93;;;14.20;99.90;;;;;;5031044;28;20129;-75
2023/10/20 02:33:40;;;;;;;21.20;10.90;;;14.20;99.90;;;;;;5035468;28;20032;-75
2023/10/20 02:36:07;;;;;;;23.48;11.35;;;14.20;99.90;;;;;;5019333;28;20069;-75
2023/10/20 02:38:32;;;;;;;25.38;11.98;;;14.10;99.90;;;;;;5032407;28;20556;-77
2023/10/20 02:40:59;;;;;;;22.15;11.48;;;14.10;99.90;;;;;;5034173;28;20065;-75
2023/10/20 02:43:25;;;;;;;25.73;11.20;;;14.00;99.90;;;;;;5032198;28;20037;-75
2023/10/20 02:45:54;;;;;;;26.08;11.98;;;14.00;99.90;;;;;;5034678;28;20124;-75
2023/10/20 02:48:23;;;;;;;25.30;12.30;;;13.90;99.90;;;;;;5018784;28;20060;-74
2023/10/20 02:50:49;;;;;;;23.50;12.02;;;13.90;99.90;;;;;;5034463;28;20064;-75
2023/10/20 02:53:15;;;;;;;26.75;11.80;;;13.80;99.90;;;;;;5035058;28;20041;-75
2023/10/20 02:55:41;;;;;;;21.83;10.82;;;13.80;99.90;;;;;;5018791;28;20033;-74
2023/10/20 02:58:11;;;;;;;25.13;11.00;;;13.80;99.90;;;;;;5037142;28;20040;-75
2023/10/20 03:00:44;;;;;;;26.73;11.23;;;13.70;99.90;;;;;;5030492;28;20129;-76
2023/10/20 03:03:11;;;;;;;30.45;12.07;;;13.70;99.90;;;;;;5038487;28;20037;-74
2023/10/20 03:05:37;;;;;;;21.65;10.02;;;13.60;99.90;;;;;;5033551;28;20121;-75
2023/10/20 03:08:03;;;;;;;27.02;10.38;;;13.60;99.90;;;;;;5034535;28;20107;-74
2023/10/20 03:10:29;;;;;;;23.25;10.65;;;13.60;99.90;;;;;;5027423;28;20091;-74
2023/10/20 03:12:54;;;;;;;23.92;11.20;;;13.60;99.90;;;;;;5035760;28;20494;-77
2023/10/20 03:15:20;;;;;;;23.20;10.15;;;13.50;99.90;;;;;;5038823;28;20398;-74
2023/10/20 03:17:45;;;;;;;25.23;10.43;;;13.50;99.90;;;;;;5034090;28;20112;-75
2023/10/20 03:20:16;;;;;;;20.40;10.02;;;13.50;99.90;;;;;;5036244;28;20045;-75
2023/10/20 03:22:41;;;;;;;;;;;13.50;99.90;;;;;;5036714;28;20040;-75
2023/10/20 03:25:10;;;;;;;27.30;10.73;;;13.40;99.90;;;;;;5033286;28;19916;-75
2023/10/20 03:27:37;;;;;;;22.27;10.60;;;13.40;99.90;;;;;;5031890;28;20044;-75
2023/10/20 03:30:07;;;;;;;26.85;10.55;;;13.40;99.90;;;;;;5035658;28;20064;-76
2023/10/20 03:32:33;;;;;;;22.33;10.15;;;13.40;99.90;;;;;;5018091;28;20658;-75
2023/10/20 03:34:58;;;;;;;24.67;10.55;;;13.30;99.90;;;;;;5034271;28;20040;-76
2023/10/20 03:37:24;;;;;;;21.65;10.57;;;13.30;99.90;;;;;;5040455;28;20124;-77
2023/10/20 03:39:51;;;;;;;24.15;10.77;;;13.30;99.90;;;;;;5033968;28;20041;-76
2023/10/20 03:42:16;;;;;;;28.40;12.10;;;13.20;99.90;;;;;;5015867;28;20060;-75
2023/10/20 03:44:43;;;;;;;26.73;10.88;;;13.20;99.90;;;;;;5039094;28;20059;-77
2023/10/20 03:47:09;;;;;;;31.55;11.77;;;13.20;99.90;;;;;;5036238;28;20030;-75
2023/10/20 03:49:35;;;;;;;22.67;11.00;;;13.10;99.90;;;;;;5039261;28;20474;-75
2023/10/20 03:52:06;;;;;;;32.67;12.88;;;13.10;99.90;;;;;;5032562;28;20040;-75
2023/10/20 03:54:33;;;;;;;23.33;10.82;;;13.00;99.90;;;;;;5039679;28;20052;-76
2023/10/20 03:56:59;;;;;;;25.42;10.60;;;13.00;99.90;;;;;;5037657;28;20097;-74
2023/10/20 03:59:25;;;;;;;24.80;10.35;;;12.90;99.90;;;;;;5032321;28;20133;-75
2023/10/20 04:01:53;;;;;;;25.23;10.82;;;12.90;99.90;;;;;;5040372;28;20043;-75
2023/10/20 04:04:19;;;;;;;21.73;10.05;;;12.90;99.90;;;;;;5035365;28;20099;-76
2023/10/20 04:06:45;;;;;;;25.02;11.15;;;12.80;99.90;;;;;;5022108;28;20061;-75
2023/10/20 04:09:11;;;;;;;26.00;10.75;;;12.80;99.90;;;;;;5023912;28;20044;-75
2023/10/20 04:11:38;;;;;;;27.67;11.57;;;12.80;99.90;;;;;;5040737;28;20040;-76
2023/10/20 04:14:08;;;;;;;24.88;10.35;;;12.70;99.90;;;;;;5035323;28;20048;-74
2023/10/20 04:16:39;;;;;;;27.48;10.43;;;12.70;99.90;;;;;;5036898;28;20036;-74
2023/10/20 04:19:15;;;;;;;26.33;11.05;;;12.70;99.90;;;;;;5037079;28;20178;-76
2023/10/20 04:21:45;;;;;;;25.48;9.75;;;12.70;99.90;;;;;;5033627;28;20037;-75
2023/10/20 04:24:11;;;;;;;25.58;9.77;;;12.60;99.90;;;;;;5034134;28;20029;-76
2023/10/20 04:26:38;;;;;;;23.63;10.20;;;12.60;99.90;;;;;;5016449;28;20033;-75
2023/10/20 04:56:23;;;;;;;22.83;10.27;;;12.40;99.90;;;;;;5020951;28;20033;-75
2023/10/20 04:58:57;;;;;;;;;;;12.40;99.90;;;;;;5020169;28;20049;-74
2023/10/20 05:01:47;;;;;;;23.23;10.00;;;12.40;99.90;;;;;;5031323;28;20032;-77
2023/10/20 05:04:24;;;;;;;25.90;10.25;;;12.30;99.90;;;;;;5019013;28;20371;-75
2023/10/20 05:07:05;;;;;;;28.60;9.90;;;12.30;99.90;;;;;;5039569;28;20087;-75
2023/10/20 05:09:33;;;;;;;22.42;9.35;;;12.30;99.90;;;;;;5032826;28;20052;-75
2023/10/20 05:11:59;;;;;;;25.15;10.50;;;12.30;99.90;;;;;;5018274;28;20489;-76
2023/10/20 05:14:24;;;;;;;24.83;10.20;;;12.30;99.90;;;;;;5030468;28;20033;-76
2023/10/20 05:16:50;;;;;;;22.58;9.07;;;12.30;99.90;;;;;;5031068;28;20364;-75
2023/10/20 05:19:16;;;;;;;22.52;9.90;;;12.30;99.90;;;;;;5038732;28;20132;-75
2023/10/20 05:21:41;;;;;;;24.15;9.85;;;12.20;99.90;;;;;;5014326;28;20040;-74
2023/10/20 05:24:08;;;;;;;22.35;9.52;;;12.20;99.90;;;;;;5010355;28;20399;-75
2023/10/20 05:26:34;;;;;;;23.80;10.25;;;12.20;99.90;;;;;;5013053;28;20057;-74
2023/10/20 05:29:01;;;;;;;24.75;10.20;;;12.20;99.90;;;;;;4992979;28;20061;-76
2023/10/20 05:31:27;;;;;;;24.23;9.93;;;12.10;99.90;;;;;;5010192;28;20391;-76
2023/10/20 05:33:53;;;;;;;26.23;10.85;;;12.10;99.90;;;;;;4992986;28;20030;-74
2023/10/20 05:36:19;;;;;;;23.20;10.15;;;12.10;99.90;;;;;;5010861;28;20487;-76
2023/10/20 05:38:45;;;;;;;23.58;9.80;;;12.10;99.90;;;;;;5010875;28;20022;-76
2023/10/20 05:41:11;;;;;;;21.08;8.63;;;12.00;99.90;;;;;;4992260;28;20045;-74
2023/10/20 05:43:38;;;;;;;21.92;9.15;;;12.00;99.90;;;;;;5010846;28;20050;-75
2023/10/20 05:46:04;;;;;;;26.23;9.88;;;12.00;99.90;;;;;;5009429;28;20030;-76
2023/10/20 05:48:30;;;;;;;21.95;8.82;;;12.00;99.90;;;;;;4993106;28;20034;-74
2023/10/20 05:50:57;;;;;;;24.05;10.00;;;12.00;99.90;;;;;;5010563;28;20085;-74
2023/10/20 05:53:26;;;;;;;20.90;9.02;;;12.00;99.90;;;;;;5013647;28;20418;-76
2023/10/20 05:55:52;;;;;;;23.25;8.80;;;11.90;99.90;;;;;;5019437;28;20049;-76
2023/10/20 05:58:18;;;;;;;20.05;8.65;;;11.90;99.90;;;;;;5009006;28;20103;-77
2023/10/20 06:00:43;;;;;;;23.33;8.02;;;11.90;99.90;;;;;;5010632;28;20476;-72
2023/10/20 06:03:09;;;;;;;17.88;7.65;;;11.90;99.90;;;;;;4991579;28;20060;-79
2023/10/20 06:05:35;;;;;;;17.52;7.53;;;11.90;99.90;;;;;;5009275;28;20080;-74
2023/10/20 06:08:01;;;;;;;20.52;8.50;;;11.90;99.90;;;;;;5008295;28;20129;-74
2023/10/20 06:10:27;;;;;;;15.20;6.75;;;11.80;99.90;;;;;;4987163;28;20061;-75
2023/10/20 06:12:54;;;;;;;18.73;7.22;;;11.80;99.90;;;;;;5017607;28;20080;-75
2023/10/20 06:15:20;;;;;;;14.50;6.38;;;11.80;99.90;;;;;;5008718;28;20907;-76
2023/10/20 06:17:47;;;;;;;21.65;7.72;;;11.80;99.90;;;;;;5009864;28;20061;-74
2023/10/20 06:20:14;;;;;;;15.88;6.90;;;11.80;99.90;;;;;;5011515;28;20064;-76
2023/10/20 06:22:44;;;;;;;19.00;6.35;;;11.70;99.90;;;;;;5014405;28;20044;-75
2023/10/20 06:25:12;;;;;;;15.18;6.57;;;11.70;99.90;;;;;;5011885;28;20121;-74
2023/10/20 06:27:39;;;;;;;13.85;6.22;;;11.70;99.90;;;;;;5002893;28;20049;-75
2023/10/20 06:30:06;;;;;;;17.77;6.25;;;11.60;99.90;;;;;;5003168;28;20029;-75
2023/10/20 06:32:41;;;;;;;15.02;6.15;;;11.60;99.90;;;;;;5008836;28;20129;-77
2023/10/20 06:35:09;;;;;;;17.73;6.60;;;11.60;99.90;;;;;;4990768;28;20062;-74
2023/10/20 06:37:56;;;;;;;16.00;5.32;;;11.50;99.90;;;;;;5009014;28;20100;-74
2023/10/20 06:40:22;;;;;;;11.43;5.43;;;11.50;99.90;;;;;;4987769;28;20547;-76
2023/10/20 06:42:47;;;;;;;13.57;6.07;;;11.50;99.90;;;;;;5020352;28;20049;-75
2023/10/20 06:45:13;;;;;;;11.23;4.68;;;11.50;99.90;;;;;;5008620;28;20026;-74
2023/10/20 06:47:42;;;;;;;12.43;5.10;;;11.50;99.90;;;;;;4990023;28;20037;-78
2023/10/20 06:50:11;;;;;;;10.32;4.93;;;11.40;99.90;;;;;;5010180;28;20700;-75
2023/10/20 06:52:36;;;;;;;13.63;5.63;;;11.40;99.90;;;;;;5016083;28;20026;-76
2023/10/20 06:55:06;;;;;;;10.63;4.63;;;11.40;99.90;;;;;;4990933;28;20492;-74
2023/10/20 06:57:32;;;;;;;10.37;4.57;;;11.30;99.90;;;;;;4987487;28;20040;-76
2023/10/20 06:59:57;;;;;;;9.63;4.10;;;11.30;99.90;;;;;;5014494;28;20637;-74
2023/10/20 07:02:23;;;;;;;11.18;4.68;;;11.30;99.90;;;;;;4993415;28;20069;-76
2023/10/20 07:04:49;;;;;;;10.23;5.00;;;11.30;99.90;;;;;;4995810;28;20107;-75
2023/10/20 07:07:17;;;;;;;10.40;4.68;;;11.30;99.90;;;;;;4997736;28;20050;-75
2023/10/20 07:09:44;;;;;;;12.20;5.63;;;11.20;99.90;;;;;;5015680;28;20084;-76
2023/10/20 07:12:10;;;;;;;8.70;4.63;;;11.20;99.90;;;;;;4997804;28;20022;-74
2023/10/20 07:14:38;;;;;;;11.70;4.95;;;11.20;99.90;;;;;;4993939;28;20036;-75
2023/10/20 07:17:06;;;;;;;9.48;4.00;;;11.20;99.90;;;;;;5010527;28;20014;-74
2023/10/20 07:19:35;;;;;;;9.70;4.63;;;11.20;99.90;;;;;;5013140;28;20560;-77
2023/10/20 07:22:02;;;;;;;11.43;4.82;;;11.10;99.90;;;;;;4993403;28;20038;-75
2023/10/20 07:24:28;;;;;;;10.38;4.40;;;11.10;99.90;;;;;;5010733;28;20030;-74
2023/10/20 07:26:54;;;;;;;9.57;4.53;;;11.10;99.90;;;;;;5243195;22;20040;-73
2023/10/20 07:29:20;;;;;;;12.00;4.57;;;11.10;99.90;;;;;;5015344;28;20044;-73
2023/10/20 07:31:47;;;;;;;8.23;3.95;;;11.10;99.90;;;;;;5035339;28;20055;-72
2023/10/20 07:34:13;;;;;;;11.23;5.15;;;11.00;99.90;;;;;;5024681;28;20455;-72
2023/10/20 07:36:39;;;;;;;11.52;4.45;;;11.00;99.90;;;;;;5013809;28;20053;-72
2023/10/20 07:39:08;;;;;;;12.18;5.07;;;11.00;99.90;;;;;;4991063;28;20099;-71
2023/10/20 07:41:35;;;;;;;11.20;4.82;;;11.00;99.90;;;;;;5000304;28;20041;-72
2023/10/20 07:44:04;;;;;;;14.77;5.60;;;11.00;99.90;;;;;;5002206;28;20068;-73
2023/10/20 07:46:31;;;;;;;11.43;5.25;;;11.00;99.90;;;;;;4999568;28;20452;-73
2023/10/20 07:48:57;;;;;;;10.25;4.55;;;11.00;99.90;;;;;;5007716;28;20120;-75
2023/10/20 07:51:22;;;;;;;12.35;5.05;;;11.00;99.90;;;;;;4998852;28;20113;-72
2023/10/20 07:53:48;;;;;;;10.27;4.60;;;10.90;99.90;;;;;;5002950;28;20025;-73
2023/10/20 07:56:14;;;;;;;14.15;5.20;;;10.90;99.90;;;;;;5016516;28;20818;-75
2023/10/20 07:58:39;;;;;;;11.73;5.03;;;10.90;99.90;;;;;;5000406;28;20096;-72
2023/10/20 08:01:06;;;;;;;12.02;4.80;;;10.80;99.90;;;;;;5021311;28;20040;-72
2023/10/20 08:03:32;;;;;;;11.25;4.93;;;10.90;99.90;;;;;;5001596;28;20429;-72
2023/10/20 08:06:00;;;;;;;11.45;4.35;;;10.90;99.90;;;;;;5015416;28;20485;-73
2023/10/20 08:08:28;;;;;;;10.00;4.60;;;10.80;99.90;;;;;;5008173;28;20091;-72
2023/10/20 08:10:53;;;;;;;11.27;4.53;;;10.80;99.90;;;;;;5007362;28;20041;-71
2023/10/20 08:13:19;;;;;;;11.10;4.50;;;10.80;99.90;;;;;;5014087;28;20111;-71
2023/10/20 08:15:44;;;;;;;9.98;4.32;;;10.80;99.90;;;;;;5004232;28;20095;-72
2023/10/20 08:18:10;;;;;;;16.20;4.93;;;10.80;99.90;;;;;;4995772;28;20021;-74
2023/10/20 08:20:36;;;;;;;8.07;3.80;;;10.80;99.90;;;;;;5008594;28;20557;-70
2023/10/20 08:23:03;;;;;;;9.68;4.03;;;10.70;99.90;;;;;;5002015;28;20654;-71
2023/10/20 08:25:28;;;;;;;7.15;3.00;;;10.80;99.90;;;;;;5024712;28;20038;-71
2023/10/20 08:27:54;;;;;;;11.32;3.60;;;10.80;99.90;;;;;;5019527;28;20092;-71
2023/10/20 08:30:20;;;;;;;8.98;3.45;;;10.80;99.90;;;;;;5016128;28;20072;-71
2023/10/20 08:32:46;;;;;;;8.70;3.97;;;10.80;99.90;;;;;;4991183;28;20030;-72
2023/10/20 08:35:14;;;;;;;8.00;3.63;;;10.70;99.90;;;;;;4992127;28;20083;-71
2023/10/20 08:37:39;;;;;;;7.38;3.28;;;10.80;99.90;;;;;;4996763;28;20560;-72
2023/10/20 08:40:10;;;;;;;10.35;3.15;;;10.70;99.90;;;;;;5016255;28;20030;-73
2023/10/20 08:42:40;;;;;;;7.22;2.95;;;10.70;99.90;;;;;;4990259;28;20120;-71
2023/10/20 08:45:13;;;;;;;5.75;2.85;;;10.70;99.90;;;;;;5017754;28;20034;-71
2023/10/20 08:47:44;;;;;;;7.18;3.55;;;10.70;99.90;;;;;;5004700;28;20054;-72
2023/10/20 08:50:10;;;;;;;5.18;2.33;;;10.60;99.90;;;;;;5017314;28;20530;-73
2023/10/20 08:52:36;;;;;;;6.68;2.92;;;10.70;99.90;;;;;;4991458;28;20036;-73
2023/10/20 08:55:04;;;;;;;6.05;2.10;;;10.70;99.90;;;;;;4990635;28;20022;-72
2023/10/20 08:57:29;;;;;;;5.03;2.17;;;10.60;99.90;;;;;;5005326;28;20095;-71
2023/10/20 08:59:55;;;;;;;4.68;1.73;;;10.60;99.90;;;;;;5003620;28;20025;-74
2023/10/20 09:02:21;;;;;;;5.20;2.22;;;10.60;99.90;;;;;;5006186;28;20376;-72
2023/10/20 09:04:51;;;;;;;3.17;2.03;;;10.60;99.90;;;;;;5010773;28;20037;-72
2023/10/20 09:07:16;;;;;;;5.05;1.92;;;10.60;99.90;;;;;;5002758;28;20037;-72
2023/10/20 09:09:43;;;;;;;4.93;2.13;;;10.50;99.90;;;;;;5011820;28;20030;-70
2023/10/20 09:12:11;;;;;;;4.55;1.90;;;10.50;99.90;;;;;;5009386;28;20061;-71
2023/10/20 09:14:40;;;;;;;4.78;2.13;;;10.50;99.90;;;;;;5005582;28;20025;-72
2023/10/20 09:17:08;;;;;;;3.67;1.70;;;10.50;99.90;;;;;;4992408;28;20030;-75
2023/10/20 09:19:35;;;;;;;4.40;1.70;;;10.40;99.90;;;;;;4991296;28;20440;-71
2023/10/20 09:22:01;;;;;;;3.63;1.55;;;10.40;99.90;;;;;;5008834;28;20057;-72
2023/10/20 09:24:34;;;;;;;2.05;1.10;;;10.40;99.90;;;;;;4991308;28;20045;-71
2023/10/20 09:27:01;;;;;;;2.67;1.52;;;10.40;99.90;;;;;;4997858;28;20096;-70
2023/10/20 09:29:29;;;;;;;3.22;1.35;;;10.40;99.90;;;;;;5015485;28;20030;-72
2023/10/20 09:31:59;;;;;;;4.72;1.55;;;10.40;99.90;;;;;;5025622;28;20037;-71
2023/10/20 09:34:25;;;;;;;2.85;1.27;;;10.40;99.90;;;;;;5008289;28;20026;-71
2023/10/20 09:36:52;;;;;;;4.43;1.17;;;10.30;99.90;;;;;;5001648;28;20040;-74
2023/10/20 09:39:25;;;;;;;4.30;1.17;;;10.30;99.90;;;;;;4982533;28;20113;-73
2023/10/20 09:41:52;;;;;;;2.63;1.00;;;10.30;99.90;;;;;;5008464;28;20053;-72
2023/10/20 09:44:33;;;;;;;3.28;1.33;;;10.30;99.90;;;;;;4989326;28;20033;-72
2023/10/20 09:47:07;;;;;;;4.32;1.50;;;10.30;99.90;;;;;;5008818;28;20064;-71
2023/10/20 09:49:35;;;;;;;2.67;1.27;;;10.30;99.90;;;;;;4990998;28;20034;-71
2023/10/20 09:52:01;;;;;;;2.60;1.10;;;10.30;99.90;;;;;;5006819;28;20038;-74
2023/10/20 09:54:30;;;;;;;1.92;0.82;;;10.20;99.90;;;;;;5019125;28;20030;-71
2023/10/20 09:56:57;;;;;;;5.88;0.90;;;10.30;99.90;;;;;;5018071;28;20065;-73
2023/10/20 09:59:25;;;;;;;2.72;0.77;;;10.30;99.90;;;;;;4999407;28;20033;-71
2023/10/20 10:01:56;;;;;;;10.13;1.08;;;10.30;99.90;;;;;;5018623;28;20069;-73
2023/10/20 10:04:30;;;;;;;3.92;1.35;;;10.30;99.90;;;;;;5023030;28;20042;-73
2023/10/20 10:07:03;;;;;;;3.22;1.38;;;10.20;99.90;;;;;;5008792;28;20022;-72
2023/10/20 10:09:49;;;;;;;4.10;1.25;;;10.30;99.90;;;;;;4997171;28;20124;-72
2023/10/20 10:12:18;;;;;;;1.00;0.60;;;10.20;99.90;;;;;;5015366;28;20060;-76
2023/10/20 10:15:07;;;;;;;2.87;0.60;;;10.20;99.90;;;;;;5014248;28;20121;-72
2023/10/20 10:17:51;;;;;;;3.30;1.02;;;10.20;99.90;;;;;;4986537;28;20522;-74
2023/10/20 10:20:25;;;;;;;0.60;0.40;;;10.10;99.90;;;;;;4993663;28;20056;-73
2023/10/20 10:23:01;;;;;;;1.00;0.40;;;10.10;99.90;;;;;;4995970;28;20060;-73
2023/10/20 10:25:53;;;;;;;0.63;0.40;;;10.10;99.90;;;;;;4992680;28;20048;-71
2023/10/20 10:28:20;;;;;;;1.05;0.43;;;10.10;99.90;;;;;;4993835;28;20045;-71
2023/10/20 10:30:51;;;;;;;1.02;0.70;;;10.10;99.90;;;;;;4998594;28;20033;-72
2023/10/20 10:33:23;;;;;;;0.68;0.35;;;10.10;99.90;;;;;;4997598;28;20042;-72
2023/10/20 10:35:49;;;;;;;2.20;0.70;;;10.00;99.90;;;;;;5017311;28;20058;-74
2023/10/20 10:38:19;;;;;;;1.38;0.60;;;10.10;99.90;;;;;;5014057;28;20107;-72
2023/10/20 10:40:45;;;;;;;0.57;0.30;;;10.10;99.90;;;;;;4987811;28;20065;-72
2023/10/20 10:43:15;;;;;;;1.40;0.40;;;10.10;99.90;;;;;;4991753;28;20030;-73
2023/10/20 10:45:42;;;;;;;0.55;0.40;;;10.10;99.90;;;;;;4992205;28;20070;-72
2023/10/20 10:48:09;;;;;;;1.40;0.65;;;10.00;99.90;;;;;;4981520;28;20057;-72
2023/10/20 10:50:43;;;;;;;0.63;0.35;;;10.00;99.90;;;;;;4994246;28;20030;-72
2023/10/20 10:53:12;;;;;;;0.52;0.15;;;10.00;99.90;;;;;;5003503;28;20026;-72
2023/10/20 10:55:38;;;;;;;0.38;0.30;;;10.00;99.90;;;;;;5016211;28;20025;-72
2023/10/20 10:58:09;;;;;;;4.03;0.63;;;10.00;99.90;;;;;;5003221;28;20029;-72
2023/10/20 11:00:37;;;;;;;0.70;0.20;;;10.00;99.90;;;;;;4993924;28;20061;-71
2023/10/20 11:03:03;;;;;;;1.42;0.50;;;10.00;99.90;;;;;;4996564;28;20045;-72
2023/10/20 11:05:29;;;;;;;0.52;0.10;;;10.00;99.90;;;;;;5008454;28;20034;-71
2023/10/20 11:08:02;;;;;;;0.88;0.40;;;10.00;99.90;;;;;;5001702;28;20037;-70
2023/10/20 11:10:33;;;;;;;0.57;0.28;;;10.00;99.90;;;;;;5014633;28;20041;-74
2023/10/20 11:12:59;;;;;;;0.90;0.30;;;10.00;99.90;;;;;;4995235;28;20025;-74
2023/10/20 11:15:28;;;;;;;0.80;0.30;;;10.00;99.90;;;;;;4998191;28;20398;-72
2023/10/20 11:17:59;;;;;;;1.55;0.38;;;10.00;99.90;;;;;;5001988;28;20037;-75
2023/10/20 11:20:26;;;;;;;2.47;0.30;;;10.00;99.90;;;;;;5002578;28;20029;-75
2023/10/20 11:22:55;;;;;;;5.85;0.77;;;10.00;99.90;;;;;;5002340;28;20042;-75
2023/10/20 11:25:22;;;;;;;1.23;0.40;;;10.00;99.90;;;;;;4997099;28;20034;-74
2023/10/20 11:27:55;;;;;;;1.45;0.65;;;10.00;99.90;;;;;;5023024;28;20043;-75
2023/10/20 11:30:28;;;;;;;0.93;0.38;;;10.00;99.90;;;;;;5017274;28;20522;-76
2023/10/20 11:32:55;;;;;;;1.35;0.20;;;10.00;99.90;;;;;;5004590;28;20133;-73
2023/10/20 11:35:24;;;;;;;0.95;0.30;;;10.00;99.90;;;;;;5005050;28;20030;-73
2023/10/20 11:37:54;;;;;;;2.00;0.30;;;10.00;99.90;;;;;;5003906;28;20461;-73
2023/10/20 11:40:20;;;;;;;1.02;0.40;;;10.00;99.90;;;;;;5003326;28;20052;-75
2023/10/20 11:42:46;;;;;;;0.63;0.30;;;10.00;99.90;;;;;;5006890;28;20038;-73
2023/10/20 11:45:11;;;;;;;1.65;0.28;;;10.00;99.90;;;;;;5005770;28;20092;-75
2023/10/20 11:47:38;;;;;;;2.05;0.30;;;10.00;99.90;;;;;;5012893;28;20029;-73
2023/10/20 11:50:05;;;;;;;0.82;0.43;;;10.00;99.90;;;;;;5017827;28;20795;-74
2023/10/20 11:52:31;;;;;;;1.58;0.63;;;10.00;99.90;;;;;;5004417;28;20034;-73
2023/10/20 11:54:57;;;;;;;5.55;0.52;;;10.00;99.90;;;;;;4999997;28;20033;-72
2023/10/20 11:57:22;;;;;;;2.88;0.20;;;10.00;99.90;;;;;;4991327;28;20579;-75
2023/10/20 11:59:48;;;;;;;0.65;0.28;;;10.10;99.90;;;;;;4991248;28;20034;-71
2023/10/20 12:02:13;;;;;;;0.08;0.05;;;10.10;99.90;;;;;;5010032;28;20041;-72
2023/10/20 12:04:39;;;;;;;1.20;0.32;;;10.10;99.90;;;;;;4994667;28;20060;-72
2023/10/20 12:07:05;;;;;;;1.05;0.30;;;10.10;99.90;;;;;;4992529;28;20025;-72
2023/10/20 12:09:30;;;;;;;2.90;0.45;;;10.10;99.90;;;;;;5000614;28;20061;-72
2023/10/20 12:11:56;;;;;;;1.63;0.35;;;10.10;99.90;;;;;;4992718;28;20578;-72
2023/10/20 12:14:22;;;;;;;3.45;0.35;;;10.20;99.90;;;;;;5009619;28;20503;-72
2023/10/20 12:16:47;;;;;;;0.38;0.30;;;10.10;99.90;;;;;;4993775;28;20128;-74
2023/10/20 12:19:13;;;;;;;0.20;0.17;;;10.20;99.90;;;;;;5019043;28;20445;-74
2023/10/20 12:21:38;;;;;;;0.52;0.28;;;10.10;99.90;;;;;;4997368;28;20029;-73
2023/10/20 12:24:05;;;;;;;1.38;0.73;;;10.20;99.90;;;;;;4996217;28;20050;-74
2023/10/20 12:26:30;;;;;;;2.08;0.82;;;10.20;99.90;;;;;;4996810;28;20091;-75
2023/10/20 12:28:56;;;;;;;0.50;0.40;;;10.20;99.90;;;;;;5014890;28;20030;-72
2023/10/20 12:31:24;;;;;;;0.68;0.22;;;10.20;99.90;;;;;;4991436;28;20022;-73
2023/10/20 12:33:50;;;;;;;0.50;0.30;;;10.20;99.90;;;;;;5002156;28;20088;-71
2023/10/20 12:36:16;;;;;;;0.30;0.20;;;10.20;99.90;;;;;;4982476;28;20018;-73
2023/10/20 12:38:44;;;;;;;1.65;0.47;;;10.30;99.90;;;;;;4992576;28;20030;-73
2023/10/20 12:41:14;;;;;;;1.40;0.30;;;10.30;99.90;;;;;;4992190;28;20041;-72
2023/10/20 12:43:40;;;;;;;1.40;0.28;;;10.30;99.90;;;;;;5003202;28;20068;-72
2023/10/20 12:46:06;;;;;;;1.15;0.20;;;10.30;99.90;;;;;;5029573;28;20033;-71
2023/10/20 12:48:33;;;;;;;0.75;0.43;;;10.30;99.90;;;;;;5007201;28;20026;-72
2023/10/20 12:51:06;;;;;;;1.23;0.30;;;10.40;99.90;;;;;;4992243;28;20075;-71
2023/10/20 12:53:31;;;;;;;0.85;0.30;;;10.30;99.90;;;;;;5004260;28;20091;-70
2023/10/20 12:55:57;;;;;;;0.50;0.17;;;10.40;99.90;;;;;;5003783;28;20033;-74
2023/10/20 12:58:22;;;;;;;0.63;0.20;;;10.30;99.90;;;;;;4987060;28;20115;-73
2023/10/20 13:00:48;;;;;;;0.65;0.20;;;10.30;99.90;;;;;;5006512;28;20029;-73
2023/10/20 13:03:13;;;;;;;1.38;0.28;;;10.30;99.90;;;;;;5000640;28;20034;-72
2023/10/20 13:05:40;;;;;;;0.32;0.10;;;10.40;99.90;;;;;;5029480;28;20126;-71
2023/10/20 13:08:05;;;;;;;0.13;0.10;;;10.30;99.90;;;;;;5020957;28;20033;-72
2023/10/20 13:10:31;;;;;;;1.02;0.20;;;10.30;99.90;;;;;;5011436;28;20044;-71